Impacts METAR Board
IDs:

KEDC - Austin/Executive Arp, TX, US

Updated at: 0300 UTC 06 Dec 2019
Potential Impact None Slight Moderate High
Time 05/15Z 05/16Z 05/17Z 05/18Z 05/19Z 05/20Z 05/21Z 05/22Z 05/23Z 06/00Z 06/01Z 06/02Z 06/03Z
Temp55 57 57 63 66 70 72 72 72 68 66 64 63
Dewpt54 55 57 59 59 59 59 59 57 59 59 59 59
Altim30.06 30.08 30.07 30.04 30.00 29.96 29.94 29.93 29.95 29.95 29.96 29.98 29.98
VIS2 0.5 1 5 8 9 10 10 10 10 10 10 10
CIG4 3 3 5 12 20 -- -- -- -- -- -- --
CoverOVCOVCOVCOVCOVCBKNFEWCLRCLRCLRCLRCLRCLR
FltCatLIFRLIFRLIFRIFRMVFRMVFRVFRVFRVFRVFRVFRVFRVFR
WXBRFGBRBR------------------
WDir180200180190190210190180210200200220210
WSpd6 6 6 8 10 16 11 12 11 7 6 6 7
WGst-- -- -- -- 16 -- 20 18 16 -- -- -- --
Raw hourly METARs
KEDC 051455Z AUTO 18006KT 2SM BR OVC004 13/12 A3006 RMK AO2
KEDC 051555Z AUTO 20006KT 1/2SM FG OVC003 14/13 A3008 RMK AO2
KEDC 051655Z AUTO 18006KT 1SM BR OVC003 14/14 A3007 RMK AO2
KEDC 051755Z AUTO 19008KT 5SM BR OVC005 17/15 A3004 RMK AO2
KEDC 051855Z AUTO 19010G16KT 8SM OVC012 19/15 A3000 RMK AO2
KEDC 051955Z AUTO 21016KT 9SM BKN020 21/15 A2996 RMK AO2
KEDC 052055Z AUTO 19011G20KT 10SM FEW022 22/15 A2994 RMK AO2
KEDC 052155Z AUTO 18012G18KT 10SM CLR 22/15 A2993 RMK AO2
KEDC 052255Z AUTO 21011G16KT 10SM CLR 22/14 A2995 RMK AO2
KEDC 052355Z AUTO 20007KT 10SM CLR 20/15 A2995 RMK AO2
KEDC 060055Z AUTO 20006KT 10SM CLR 19/15 A2996 RMK AO2
KEDC 060155Z AUTO 22006KT 10SM CLR 18/15 A2998 RMK AO2
KEDC 060255Z AUTO 21007KT 10SM CLR 17/15 A2998 RMK AO2